createdAt,value
2022-11-26T00:02:28.553Z,101237.47
2022-11-26T00:04:57.580Z,101288.31
2022-11-26T00:07:29.177Z,101283.81
2022-11-26T00:09:58.517Z,101266.34
2022-11-26T00:12:32.025Z,101260.38
2022-11-26T00:15:09.469Z,101277.00
2022-11-26T00:17:36.460Z,101252.78
2022-11-26T00:20:03.652Z,101259.47
2022-11-26T00:22:41.341Z,101263.69
2022-11-26T00:25:28.141Z,101290.31
2022-11-26T00:27:57.420Z,101295.63
2022-11-26T00:30:27.469Z,101286.59
2022-11-26T00:32:56.216Z,101271.75
2022-11-26T00:35:23.884Z,101280.28
2022-11-26T00:37:59.018Z,101294.72
2022-11-26T00:40:31.679Z,101303.13
2022-11-26T00:43:01.675Z,101299.34
2022-11-26T00:45:31.281Z,101326.31
2022-11-26T00:47:58.581Z,101307.75
2022-11-26T00:50:27.833Z,101321.59
2022-11-26T00:52:57.123Z,101331.13
2022-11-26T00:55:42.515Z,101333.06
2022-11-26T00:58:25.142Z,101348.88
2022-11-26T01:00:54.119Z,101349.16
2022-11-26T01:03:21.319Z,101331.34
2022-11-26T01:05:54.085Z,101345.81
2022-11-26T01:08:36.516Z,101330.97
2022-11-26T01:11:05.841Z,101335.41
2022-11-26T01:13:33.408Z,101331.25
2022-11-26T01:16:01.853Z,101324.00
2022-11-26T01:18:34.985Z,101356.66
2022-11-26T01:21:02.190Z,101330.66
2022-11-26T01:23:29.247Z,101336.63
2022-11-26T01:25:56.305Z,101354.44
2022-11-26T01:28:23.312Z,101338.81
2022-11-26T01:30:50.333Z,101349.28
2022-11-26T01:33:17.424Z,101360.28
2022-11-26T01:35:44.460Z,101353.75
2022-11-26T01:38:15.928Z,101369.84
2022-11-26T01:40:57.174Z,101380.69
2022-11-26T01:43:33.180Z,101381.06
2022-11-26T01:46:00.279Z,101394.53
2022-11-26T01:48:34.569Z,101396.03
2022-11-26T01:51:10.470Z,101419.91
2022-11-26T01:54:00.379Z,101426.66
2022-11-26T01:56:41.657Z,101423.13
2022-11-26T01:59:27.153Z,101420.34
2022-11-26T02:01:58.067Z,101419.38
2022-11-26T02:04:35.450Z,101414.44
2022-11-26T02:07:03.841Z,101422.91
2022-11-26T02:09:31.491Z,101430.91
2022-11-26T02:11:58.702Z,101417.44
2022-11-26T02:14:35.959Z,101428.44
2022-11-26T02:17:15.070Z,101421.25
2022-11-26T02:20:05.898Z,101423.19
2022-11-26T02:23:08.771Z,101407.16
2022-11-26T02:25:38.698Z,101429.78
2022-11-26T02:28:48.653Z,101434.03
2022-11-26T02:31:46.392Z,101414.13
2022-11-26T02:35:01.008Z,101419.88
2022-11-26T02:37:37.985Z,101433.44
2022-11-26T02:40:08.721Z,101435.31
2022-11-26T02:42:37.107Z,101452.75
2022-11-26T02:45:15.196Z,101449.53
2022-11-26T02:47:46.395Z,101471.41
2022-11-26T02:50:20.668Z,101460.56
2022-11-26T02:52:50.187Z,101461.00
2022-11-26T02:55:22.657Z,101449.53
2022-11-26T02:57:53.508Z,101459.41
2022-11-26T03:00:21.506Z,101469.44
2022-11-26T03:03:12.911Z,101458.72
2022-11-26T03:05:42.282Z,101468.38
2022-11-26T03:08:09.376Z,101464.94
2022-11-26T03:10:36.393Z,101475.94
2022-11-26T03:13:03.477Z,101452.22
2022-11-26T03:15:30.547Z,101471.81
2022-11-26T03:17:57.587Z,101470.91
2022-11-26T03:20:24.748Z,101451.06
2022-11-26T03:22:51.837Z,101466.84
2022-11-26T03:25:19.390Z,101454.84
2022-11-26T03:27:46.433Z,101448.69
2022-11-26T03:30:14.148Z,101453.34
2022-11-26T03:32:41.398Z,101455.97
2022-11-26T03:35:08.873Z,101463.66
2022-11-26T03:37:36.119Z,101476.28
2022-11-26T03:40:03.474Z,101474.53
2022-11-26T03:42:30.475Z,101464.72
2022-11-26T03:44:57.536Z,101478.53
2022-11-26T03:47:24.608Z,101469.13
2022-11-26T03:49:51.604Z,101472.25
2022-11-26T03:52:18.684Z,101445.34
2022-11-26T03:54:45.841Z,101460.97
2022-11-26T03:57:13.284Z,101463.16
2022-11-26T03:59:40.328Z,101437.34
2022-11-26T04:02:07.870Z,101455.09
2022-11-26T04:04:35.140Z,101461.38
2022-11-26T04:07:02.226Z,101460.22
2022-11-26T04:09:29.299Z,101453.53
2022-11-26T04:11:56.376Z,101460.81
2022-11-26T04:14:23.779Z,101474.13
2022-11-26T04:16:50.817Z,101474.13
2022-11-26T04:19:17.917Z,101468.72
2022-11-26T04:21:44.890Z,101464.25
2022-11-26T04:24:11.952Z,101476.50
2022-11-26T04:26:39.093Z,101474.78
2022-11-26T04:29:06.161Z,101466.03
2022-11-26T04:31:33.400Z,101456.94
2022-11-26T04:34:00.489Z,101460.84
2022-11-26T04:36:27.666Z,101464.69
2022-11-26T04:38:54.749Z,101461.41
2022-11-26T04:41:21.841Z,101481.03
2022-11-26T04:43:48.918Z,101464.16
2022-11-26T04:46:16.063Z,101465.53
2022-11-26T04:48:43.307Z,101486.47
2022-11-26T04:51:10.454Z,101461.41
2022-11-26T04:53:37.587Z,101488.00
2022-11-26T04:56:04.945Z,101479.16
2022-11-26T04:58:32.015Z,101486.09
2022-11-26T05:00:59.257Z,101459.09
2022-11-26T05:03:26.437Z,101478.81
2022-11-26T05:05:53.992Z,101453.53
2022-11-26T05:08:21.060Z,101454.25
2022-11-26T05:10:53.098Z,101467.94
2022-11-26T05:13:20.653Z,101473.78
2022-11-26T05:15:47.832Z,101468.47
2022-11-26T05:18:14.768Z,101487.00
2022-11-26T05:20:41.926Z,101500.59
2022-11-26T05:23:09.024Z,101518.41
2022-11-26T05:25:36.180Z,101519.59
2022-11-26T05:28:03.300Z,101524.91
2022-11-26T05:30:30.323Z,101561.22
2022-11-26T05:32:57.405Z,101563.63
2022-11-26T05:35:24.442Z,101566.78
2022-11-26T05:37:51.386Z,101561.41
2022-11-26T05:40:18.581Z,101573.09
2022-11-26T05:42:45.680Z,101574.81
2022-11-26T05:45:12.723Z,101577.06
2022-11-26T05:47:39.683Z,101576.06
2022-11-26T05:50:07.889Z,101582.13
2022-11-26T05:52:35.335Z,101585.53
2022-11-26T05:55:02.306Z,101576.88
2022-11-26T05:57:29.309Z,101571.63
2022-11-26T05:59:56.488Z,101572.97
2022-11-26T06:02:23.751Z,101579.28
2022-11-26T06:04:50.849Z,101581.06
2022-11-26T06:07:17.919Z,101583.22
2022-11-26T06:09:44.921Z,101594.22
2022-11-26T06:12:12.006Z,101600.25
2022-11-26T06:14:43.002Z,101602.03
2022-11-26T06:17:11.356Z,101609.88
2022-11-26T06:19:38.916Z,101593.66
2022-11-26T06:22:06.309Z,101596.28
2022-11-26T06:24:33.374Z,101575.00
2022-11-26T06:27:00.509Z,101584.63
2022-11-26T06:29:28.302Z,101570.25
2022-11-26T06:31:56.443Z,101570.69
2022-11-26T06:34:23.792Z,101560.34
2022-11-26T06:36:51.047Z,101561.75
2022-11-26T06:39:18.112Z,101584.47
2022-11-26T06:41:45.184Z,101571.69
2022-11-26T06:44:12.151Z,101592.78
2022-11-26T06:46:39.261Z,101605.97
2022-11-26T06:49:07.057Z,101621.59
2022-11-26T06:51:34.588Z,101627.00
2022-11-26T06:54:01.942Z,101625.91
2022-11-26T06:56:29.084Z,101627.50
2022-11-26T06:58:56.458Z,101626.44
2022-11-26T07:01:26.725Z,101626.31
2022-11-26T07:03:54.660Z,101627.03
2022-11-26T07:06:29.352Z,101615.69
2022-11-26T07:08:59.375Z,101655.69
2022-11-26T07:11:26.934Z,101665.19
2022-11-26T07:13:57.817Z,101675.63
2022-11-26T07:16:25.327Z,101676.72
2022-11-26T07:19:02.219Z,101665.69
2022-11-26T07:21:30.071Z,101679.47
2022-11-26T07:23:57.093Z,101672.41
2022-11-26T07:26:24.462Z,101665.03
2022-11-26T07:28:54.668Z,101665.88
2022-11-26T07:31:23.161Z,101665.56
2022-11-26T07:33:51.597Z,101672.69
2022-11-26T07:36:25.937Z,101669.06
2022-11-26T07:39:02.087Z,101669.50
2022-11-26T07:41:30.384Z,101671.91
2022-11-26T07:43:57.752Z,101681.72
2022-11-26T07:46:26.802Z,101685.44
2022-11-26T07:48:55.540Z,101687.34
2022-11-26T07:51:29.712Z,101689.63
2022-11-26T07:53:59.349Z,101694.84
2022-11-26T07:56:27.343Z,101701.25
2022-11-26T07:58:55.366Z,101710.78
2022-11-26T08:01:27.343Z,101717.47
2022-11-26T08:03:54.555Z,101722.09
2022-11-26T08:06:26.825Z,101733.72
2022-11-26T08:08:53.934Z,101725.69
2022-11-26T08:11:25.046Z,101738.22
2022-11-26T08:13:59.448Z,101733.19
2022-11-26T08:16:28.899Z,101751.66
2022-11-26T08:18:58.867Z,101754.47
2022-11-26T08:21:26.665Z,101759.69
2022-11-26T08:23:54.823Z,101767.09
2022-11-26T08:26:30.608Z,101779.03
2022-11-26T08:29:00.999Z,101784.16
2022-11-26T08:31:31.059Z,101784.84
2022-11-26T08:34:00.757Z,101790.16
2022-11-26T08:36:29.610Z,101804.66
2022-11-26T08:38:57.461Z,101807.84
2022-11-26T08:41:24.654Z,101824.06
2022-11-26T08:44:06.259Z,101810.53
2022-11-26T08:46:34.273Z,101811.34
2022-11-26T08:49:01.554Z,101823.44
2022-11-26T08:51:28.720Z,101846.84
2022-11-26T08:53:55.816Z,101835.03
2022-11-26T08:56:22.999Z,101853.44
2022-11-26T08:58:51.496Z,101857.59
2022-11-26T09:01:24.898Z,101860.56
2022-11-26T09:03:54.539Z,101880.59
2022-11-26T09:06:24.192Z,101872.75
2022-11-26T09:09:10.198Z,101878.81
2022-11-26T09:11:40.589Z,101885.47
2022-11-26T09:14:07.737Z,101892.28
2022-11-26T09:16:35.585Z,101898.59
2022-11-26T09:19:05.197Z,101895.69
2022-11-26T09:21:36.450Z,101902.56
2022-11-26T09:24:04.378Z,101912.19
2022-11-26T09:26:33.207Z,101914.25
2022-11-26T09:29:01.127Z,101910.09
2022-11-26T09:31:28.427Z,101924.06
2022-11-26T09:33:59.519Z,101937.69
2022-11-26T09:36:27.568Z,101934.41
2022-11-26T09:38:59.505Z,101958.31
2022-11-26T09:42:00.530Z,101952.41
2022-11-26T09:44:52.338Z,101956.34
2022-11-26T09:47:23.696Z,101947.50
2022-11-26T09:50:18.582Z,101951.38
2022-11-26T09:52:56.669Z,101950.19
2022-11-26T09:55:41.809Z,101947.47
2022-11-26T09:58:27.213Z,101959.69
2022-11-26T10:01:05.161Z,101967.91
2022-11-26T10:03:37.777Z,101970.69
2022-11-26T10:06:59.077Z,101970.94
2022-11-26T10:09:56.969Z,101980.03
2022-11-26T10:13:19.544Z,101977.66
2022-11-26T10:16:22.636Z,101975.53
2022-11-26T10:19:11.183Z,101996.47
2022-11-26T10:24:37.400Z,101995.38
2022-11-26T10:27:14.199Z,101999.53
2022-11-26T10:29:52.301Z,101994.28
2022-11-26T10:32:39.542Z,101989.03
2022-11-26T10:35:07.232Z,101996.88
2022-11-26T10:37:34.601Z,102008.50
2022-11-26T10:40:21.678Z,102008.59
2022-11-26T10:43:06.369Z,102008.06
2022-11-26T10:45:52.246Z,102004.47
2022-11-26T10:48:30.899Z,101991.09
2022-11-26T10:51:40.608Z,101989.59
2022-11-26T10:54:35.456Z,101989.69
2022-11-26T10:57:26.368Z,101981.19
2022-11-26T10:59:54.741Z,101996.28
2022-11-26T11:02:37.315Z,101988.88
2022-11-26T11:05:08.795Z,102000.00
2022-11-26T11:07:41.818Z,101998.53
2022-11-26T11:10:12.527Z,101991.75
2022-11-26T11:12:46.435Z,101977.84
2022-11-26T11:15:31.212Z,101972.44
2022-11-26T11:18:25.016Z,101959.22
2022-11-26T11:20:57.995Z,101974.59
2022-11-26T11:23:52.124Z,101945.50
2022-11-26T11:26:22.318Z,101944.13
2022-11-26T11:28:53.846Z,101950.97
2022-11-26T11:31:26.109Z,101945.84
2022-11-26T11:34:17.655Z,101936.00
2022-11-26T11:36:58.736Z,101924.63
2022-11-26T11:39:32.778Z,101910.63
2022-11-26T11:42:03.512Z,101921.44
2022-11-26T11:44:44.656Z,101912.69
2022-11-26T11:47:36.763Z,101919.28
2022-11-26T11:50:21.667Z,101906.00
2022-11-26T11:52:55.039Z,101907.09
2022-11-26T11:56:02.511Z,101915.72
2022-11-26T11:58:47.618Z,101950.13
2022-11-26T12:02:10.908Z,101919.59
2022-11-26T12:04:59.134Z,101920.28
2022-11-26T12:07:48.325Z,101921.97
2022-11-26T12:10:31.043Z,101919.19
2022-11-26T12:13:06.335Z,101933.66
2022-11-26T12:15:43.729Z,101922.94
2022-11-26T12:18:42.697Z,101917.47
2022-11-26T12:21:16.284Z,101939.69
2022-11-26T12:23:51.160Z,101937.84
2022-11-26T12:26:47.196Z,101932.13
2022-11-26T12:29:34.424Z,101923.31
2022-11-26T12:32:34.389Z,101932.13
2022-11-26T12:35:29.657Z,101919.59
2022-11-26T12:38:41.228Z,101914.13
2022-11-26T12:41:20.206Z,101922.88
2022-11-26T12:44:25.304Z,101928.00
2022-11-26T12:47:20.758Z,101924.34
2022-11-26T12:50:07.302Z,101927.03
2022-11-26T12:53:45.225Z,101942.47
2022-11-26T12:57:01.123Z,101918.22
2022-11-26T12:59:58.270Z,101919.78
2022-11-26T13:02:38.493Z,101930.38
2022-11-26T13:05:06.252Z,101916.88
2022-11-26T13:08:17.131Z,101918.88
2022-11-26T13:11:05.988Z,101924.06
2022-11-26T13:14:30.015Z,101918.75
2022-11-26T13:17:14.598Z,101919.50
2022-11-26T13:20:03.284Z,101924.78
2022-11-26T13:23:13.105Z,101924.97
2022-11-26T13:25:45.896Z,101918.09
2022-11-26T13:28:58.549Z,101908.19
2022-11-26T13:31:42.899Z,101914.38
2022-11-26T13:34:31.217Z,101902.88
2022-11-26T13:37:27.987Z,101912.56
2022-11-26T13:40:07.346Z,101906.19
2022-11-26T13:42:49.010Z,101905.56
2022-11-26T13:45:50.056Z,101927.09
2022-11-26T13:48:41.029Z,101925.50
2022-11-26T13:51:30.185Z,101921.69
2022-11-26T13:54:06.701Z,101925.38
2022-11-26T13:56:39.201Z,101909.94
2022-11-26T13:59:26.809Z,101908.25
2022-11-26T14:01:55.642Z,101905.56
2022-11-26T14:04:22.671Z,101887.69
2022-11-26T14:07:04.901Z,101894.50
2022-11-26T14:09:46.477Z,101898.03
2022-11-26T14:12:15.469Z,101903.50
2022-11-26T14:14:46.181Z,101892.63
2022-11-26T14:17:18.839Z,101874.81
2022-11-26T14:19:48.540Z,101861.22
2022-11-26T14:22:24.300Z,101858.66
2022-11-26T14:24:51.170Z,101854.16
2022-11-26T14:27:26.820Z,101870.31
2022-11-26T14:30:08.943Z,101856.72
2022-11-26T14:33:05.364Z,101862.06
2022-11-26T14:35:36.235Z,101872.03
2022-11-26T14:38:26.407Z,101869.25
2022-11-26T14:41:01.305Z,101873.97
2022-11-26T14:43:29.778Z,101861.22
2022-11-26T14:46:15.352Z,101860.25
2022-11-26T14:48:49.531Z,101846.91
2022-11-26T14:51:25.102Z,101831.88
2022-11-26T14:53:53.104Z,101843.00
2022-11-26T14:56:24.120Z,101827.38
2022-11-26T14:58:55.869Z,101836.94
2022-11-26T15:01:26.457Z,101820.75
2022-11-26T15:03:58.805Z,101822.47
2022-11-26T15:06:38.584Z,101823.31
2022-11-26T15:09:18.379Z,101818.81
2022-11-26T15:12:05.094Z,101821.94
2022-11-26T15:14:46.758Z,101817.50
2022-11-26T15:17:21.278Z,101807.75
2022-11-26T15:19:51.939Z,101810.31
2022-11-26T15:22:25.367Z,101811.84
2022-11-26T15:24:53.684Z,101805.41
2022-11-26T15:27:59.635Z,101803.41
2022-11-26T15:30:37.332Z,101810.59
2022-11-26T15:33:12.828Z,101808.78
2022-11-26T15:35:40.635Z,101795.50
2022-11-26T15:38:20.025Z,101794.34
2022-11-26T15:41:11.183Z,101795.94
2022-11-26T15:43:51.609Z,101791.56
2022-11-26T15:46:27.602Z,101796.69
2022-11-26T15:49:00.927Z,101799.19
2022-11-26T15:51:41.052Z,101786.59
2022-11-26T15:54:43.566Z,101798.97
2022-11-26T15:57:35.595Z,101793.63
2022-11-26T16:00:08.482Z,101810.66
2022-11-26T16:02:39.339Z,101797.09
2022-11-26T16:05:35.889Z,101803.13
2022-11-26T16:08:23.069Z,101805.88
2022-11-26T16:11:17.795Z,101810.25
2022-11-26T16:13:44.985Z,101803.06
2022-11-26T16:16:23.602Z,101814.47
2022-11-26T16:19:01.338Z,101814.31
2022-11-26T16:21:32.477Z,101805.47
2022-11-26T16:24:24.924Z,101803.81
2022-11-26T16:27:07.712Z,101805.53
2022-11-26T16:29:36.190Z,101802.91
2022-11-26T16:32:11.597Z,101805.41
2022-11-26T16:34:40.783Z,101797.44
2022-11-26T16:40:19.436Z,101788.59
2022-11-26T16:43:01.826Z,101793.09
2022-11-26T16:45:29.285Z,101789.56
2022-11-26T16:47:58.717Z,101788.59
2022-11-26T16:50:27.818Z,101794.66
2022-11-26T16:52:55.976Z,101781.53
2022-11-26T16:55:26.259Z,101767.34
2022-11-26T16:58:03.345Z,101769.06
2022-11-26T17:00:30.759Z,101767.47
2022-11-26T17:02:58.355Z,101766.44
2022-11-26T17:05:25.510Z,101765.59
2022-11-26T17:08:07.669Z,101769.97
2022-11-26T17:10:34.642Z,101761.03
2022-11-26T17:13:01.696Z,101759.31
2022-11-26T17:15:28.721Z,101755.66
2022-11-26T17:18:03.692Z,101740.63
2022-11-26T17:20:31.064Z,101740.63
2022-11-26T17:22:58.007Z,101737.09
2022-11-26T17:25:25.459Z,101745.19
2022-11-26T17:27:52.651Z,101746.84
2022-11-26T17:30:23.058Z,101751.00
2022-11-26T17:32:51.239Z,101756.25
2022-11-26T17:35:18.666Z,101760.97
2022-11-26T17:37:46.130Z,101764.63
2022-11-26T17:40:19.770Z,101767.88
2022-11-26T17:42:47.460Z,101763.53
2022-11-26T17:45:15.753Z,101761.88
2022-11-26T17:47:43.365Z,101758.97
2022-11-26T17:50:26.570Z,101758.06
2022-11-26T17:52:54.869Z,101762.28
2022-11-26T17:55:25.003Z,101778.31
2022-11-26T17:57:52.819Z,101779.97
2022-11-26T18:00:28.550Z,101788.84
2022-11-26T18:02:56.428Z,101801.22
2022-11-26T18:05:24.289Z,101808.44
2022-11-26T18:07:51.656Z,101805.66
2022-11-26T18:10:21.897Z,101813.41
2022-11-26T18:12:53.140Z,101809.81
2022-11-26T18:15:24.067Z,101807.25
2022-11-26T18:17:54.608Z,101808.81
2022-11-26T18:20:25.810Z,101808.69
2022-11-26T18:22:59.588Z,101815.13
2022-11-26T18:25:28.079Z,101808.97
2022-11-26T18:27:56.084Z,101800.03
2022-11-26T18:30:24.740Z,101795.69
2022-11-26T18:32:51.800Z,101800.63
2022-11-26T18:35:18.833Z,101797.03
2022-11-26T18:37:46.167Z,101803.19
2022-11-26T18:40:17.103Z,101800.41
2022-11-26T18:42:44.598Z,101801.16
2022-11-26T18:45:15.641Z,101798.16
2022-11-26T18:47:42.723Z,101801.69
2022-11-26T18:50:10.458Z,101799.53
2022-11-26T18:52:37.517Z,101794.19
2022-11-26T18:55:08.333Z,101793.22
2022-11-26T18:57:35.808Z,101798.41
2022-11-26T19:00:04.297Z,101790.09
2022-11-26T19:02:31.447Z,101790.16
2022-11-26T19:04:58.470Z,101797.22
2022-11-26T19:07:25.522Z,101794.44
2022-11-26T19:09:52.551Z,101785.72
2022-11-26T19:12:19.536Z,101783.09
2022-11-26T19:14:46.540Z,101772.44
2022-11-26T19:17:13.637Z,101762.09
2022-11-26T19:19:40.964Z,101765.31
2022-11-26T19:22:08.115Z,101772.47
2022-11-26T19:24:35.313Z,101772.53
2022-11-26T19:27:02.232Z,101771.03
2022-11-26T19:29:29.296Z,101756.94
2022-11-26T19:31:56.292Z,101754.22
2022-11-26T19:34:23.270Z,101737.09
2022-11-26T19:36:53.306Z,101735.97
2022-11-26T19:39:20.297Z,101717.06
2022-11-26T19:41:47.375Z,101715.78
2022-11-26T19:44:14.331Z,101703.56
2022-11-26T19:46:41.940Z,101705.66
2022-11-26T19:49:12.399Z,101712.47
2022-11-26T19:51:40.197Z,101709.53
2022-11-26T19:54:07.768Z,101712.63
2022-11-26T19:56:35.510Z,101714.34
2022-11-26T19:59:03.132Z,101725.75
2022-11-26T20:01:33.053Z,101724.53
2022-11-26T20:04:03.885Z,101722.06
2022-11-26T20:06:32.949Z,101719.28
2022-11-26T20:08:59.919Z,101718.97
2022-11-26T20:11:28.779Z,101728.72
2022-11-26T20:13:57.247Z,101727.56
2022-11-26T20:16:28.086Z,101714.41
2022-11-26T20:18:55.987Z,101704.44
2022-11-26T20:21:28.342Z,101707.72
2022-11-26T20:23:59.255Z,101694.94
2022-11-26T20:26:30.328Z,101699.34
2022-11-26T20:29:02.532Z,101714.59
2022-11-26T20:31:29.567Z,101714.19
2022-11-26T20:33:56.735Z,101703.44
2022-11-26T20:36:24.151Z,101714.09
2022-11-26T20:39:01.246Z,101704.53
2022-11-26T20:41:29.480Z,101705.25
2022-11-26T20:43:58.921Z,101700.50
2022-11-26T20:46:28.675Z,101694.53
2022-11-26T20:48:56.617Z,101693.44
2022-11-26T20:51:24.310Z,101694.09
2022-11-26T20:53:52.903Z,101682.78
2022-11-26T20:56:21.705Z,101684.34
2022-11-26T20:58:49.840Z,101703.66
2022-11-26T21:01:21.135Z,101705.78
2022-11-26T21:03:48.477Z,101715.69
2022-11-26T21:06:18.044Z,101727.97
2022-11-26T21:08:45.547Z,101718.47
2022-11-26T21:11:14.020Z,101725.03
2022-11-26T21:13:42.076Z,101723.41
2022-11-26T21:16:14.727Z,101735.94
2022-11-26T21:18:41.967Z,101733.41
2022-11-26T21:21:11.052Z,101726.84
2022-11-26T21:23:39.477Z,101724.22
2022-11-26T21:26:12.833Z,101708.19
2022-11-26T21:28:39.786Z,101688.94
2022-11-26T21:31:18.172Z,101716.72
2022-11-26T21:33:47.156Z,101717.31
2022-11-26T21:36:16.383Z,101723.47
2022-11-26T21:38:48.530Z,101729.69
2022-11-26T21:41:17.246Z,101736.81
2022-11-26T21:43:45.068Z,101734.03
2022-11-26T21:46:22.921Z,101730.59
2022-11-26T21:48:52.256Z,101732.22
2022-11-26T21:51:20.702Z,101723.94
2022-11-26T21:53:49.815Z,101721.53
2022-11-26T21:56:30.366Z,101746.13
2022-11-26T21:58:59.859Z,101748.19
2022-11-26T22:01:29.910Z,101747.53
2022-11-26T22:04:05.047Z,101741.97
2022-11-26T22:06:32.292Z,101739.50
2022-11-26T22:08:59.603Z,101743.28
2022-11-26T22:11:30.764Z,101748.59
2022-11-26T22:13:58.740Z,101735.00
2022-11-26T22:16:28.106Z,101743.69
2022-11-26T22:18:57.299Z,101745.00
2022-11-26T22:21:33.244Z,101747.06
2022-11-26T22:24:03.144Z,101747.06
2022-11-26T22:26:31.628Z,101744.19
2022-11-26T22:28:59.690Z,101744.09
2022-11-26T22:31:31.355Z,101745.09
2022-11-26T22:34:11.634Z,101735.25
2022-11-26T22:36:39.978Z,101729.59
2022-11-26T22:39:11.485Z,101736.72
2022-11-26T22:41:40.841Z,101741.75
2022-11-26T22:44:08.738Z,101737.50
2022-11-26T22:46:38.349Z,101732.91
2022-11-26T22:49:06.790Z,101722.16
2022-11-26T22:51:35.607Z,101722.34
2022-11-26T22:54:06.982Z,101715.22
2022-11-26T22:56:36.952Z,101701.13
2022-11-26T22:59:05.528Z,101709.97
2022-11-26T23:01:35.179Z,101691.06
2022-11-26T23:04:05.559Z,101676.31
2022-11-26T23:06:35.066Z,101670.78
2022-11-26T23:09:03.856Z,101674.50
2022-11-26T23:11:35.271Z,101665.88
2022-11-26T23:14:04.947Z,101643.72
2022-11-26T23:16:32.087Z,101647.16
2022-11-26T23:18:59.636Z,101653.97
2022-11-26T23:21:31.089Z,101642.91
2022-11-26T23:23:58.456Z,101625.38
2022-11-26T23:26:29.459Z,101623.56
2022-11-26T23:28:57.443Z,101601.69
2022-11-26T23:31:31.716Z,101597.47
2022-11-26T23:33:59.264Z,101601.16
2022-11-26T23:36:28.391Z,101596.81
2022-11-26T23:38:55.965Z,101599.53
2022-11-26T23:41:23.203Z,101600.44
2022-11-26T23:43:50.762Z,101577.41
2022-11-26T23:46:31.033Z,101548.97
2022-11-26T23:48:58.542Z,101559.75
2022-11-26T23:51:30.416Z,101575.06
2022-11-26T23:53:57.400Z,101566.88
2022-11-26T23:56:28.304Z,101563.34
2022-11-26T23:59:04.065Z,101543.75
